Sally Maersk — OZHS2 — position and weather

sailwx.info

Track history (hours):
 
Tides and Currents Weather Stations Pressure Air Temp Water Temp Dewpoint Dewpoint Depression Visibility Wind Speed Wind Dir Waves Ship Positions

Sally Maersk

Last reported at 2018-Mar-27 15:08 UTC. Time now 2018-Apr-24 16:42 UTC.
Position N 35°09' E 140°40'.
Warning: this ship's position is 28 days out of date.

Type: Ship. MMSI: 219324000.

Date/timePositionNaut miles runAvg speedWind from/ knotsBaromVisibWave heightAir tempDewpointWater temp
2018-Mar-27 15:08N 35°09' E 140°40'1021.1
2018-Mar-27 14:40N 35°04' E 140°30'520.4
2018-Mar-27 14:24N 35°01' E 140°24'819.6
2018-Mar-27 14:00N 34°57' E 140°16'919.0
2018-Mar-27 13:30N 34°53' E 140°06'1019.8
2018-Mar-27 13:00N 34°49' E 139°54'919.2
2018-Mar-27 12:30N 34°49' E 139°43'919.0
2018-Mar-27 12:00N 34°58' E 139°39'917.6
2018-Mar-27 11:30N 35°06' E 139°44'612.9
2018-Mar-27 11:00N 35°12' E 139°46'510.9
2018-Mar-27 10:30N 35°17' E 139°45'612.6
2018-Mar-27 10:00N 35°23' E 139°41'1 2.1
2018-Mar-27 09:30N 35°24' E 139°41'0 0.3
2018-Mar-27 08:58N 35°24' E 139°41'0 0.0
2018-Mar-27 08:28N 35°24' E 139°41'0 0.0
2018-Mar-27 08:00N 35°24' E 139°41'0 0.0
2018-Mar-27 07:31N 35°24' E 139°41'0 0.0
2018-Mar-27 07:01N 35°24' E 139°41'0 0.0
2018-Mar-27 06:31N 35°24' E 139°41'0 0.0
2018-Mar-27 06:01N 35°24' E 139°41'0 0.0
2018-Mar-27 05:31N 35°24' E 139°41'0 0.0
2018-Mar-27 05:01N 35°24' E 139°41'0 0.0
2018-Mar-27 04:31N 35°24' E 139°41'0 0.0
2018-Mar-27 04:00N 35°24' E 139°41'0 0.0
2018-Mar-27 03:31N 35°24' E 139°41'0 0.0
2018-Mar-27 03:01N 35°24' E 139°41'0 0.0
2018-Mar-27 02:31N 35°24' E 139°41'0 0.0
2018-Mar-27 02:01N 35°24' E 139°41'0 0.0
2018-Mar-27 01:31N 35°24' E 139°41'0 0.0
2018-Mar-27 01:01N 35°24' E 139°41'0 0.0
2018-Mar-27 00:30N 35°24' E 139°41'0 0.0
2018-Mar-27 00:00N 35°24' E 139°41'0 0.0
2018-Mar-26 23:30N 35°24' E 139°41'0 0.0
2018-Mar-26 23:00N 35°24' E 139°41'0 0.0
2018-Mar-26 22:31N 35°24' E 139°41'1 2.4
2018-Mar-26 22:01N 35°23' E 139°41'4 8.1
2018-Mar-26 21:31N 35°19' E 139°43'611.8
2018-Mar-26 21:00N 35°14' E 139°47'611.2
2018-Mar-26 20:30N 35°08' E 139°47'917.7
2018-Mar-26 20:00N 35°00' E 139°42'815.2
2018-Mar-26 19:27N 34°52' E 139°40'715.2
2018-Mar-26 19:00N 34°47' E 139°35'816.3
2018-Mar-26 18:30N 34°40' E 139°30'1017.4
2018-Mar-26 17:57N 34°38' E 139°19'918.9
2018-Mar-26 17:29N 34°34' E 139°09'919.6
2018-Mar-26 17:00N 34°28' E 139°00'1018.3
2018-Mar-26 16:27N 34°23' E 138°49'918.7
2018-Mar-26 15:58N 34°19' E 138°40'919.5
2018-Mar-26 15:30N 34°16' E 138°30'1019.1
2018-Mar-26 15:00N 34°11' E 138°19'1018.8
2018-Mar-26 14:28N 34°07' E 138°08'918.9
2018-Mar-26 13:58N 34°03' E 137°58'919.1
2018-Mar-26 13:28N 33°59' E 137°48'  
2018-Mar-20 02:28N 23°44' E 118°23'919.2
2018-Mar-20 01:59N 23°38' E 118°16'919.5
2018-Mar-20 01:30N 23°32' E 118°08'1019.5
2018-Mar-20 01:00N 23°27' E 117°59'1019.3
2018-Mar-20 00:30N 23°23' E 117°49'1019.4
2018-Mar-20 00:00N 23°19' E 117°40'1019.2
2018-Mar-19 23:30N 23°14' E 117°31'918.8
2018-Mar-19 23:00N 23°08' E 117°23'1118.9
2018-Mar-19 22:27N 23°03' E 117°13'  
Track history (hours):
 
Tides and Currents Weather Stations Pressure Air Temp Water Temp Dewpoint Dewpoint Depression Visibility Wind Speed Wind Dir Waves Ship Positions

Sally Maersk

Last reported at 2018-Mar-27 15:08 UTC. Time now 2018-Apr-24 16:42 UTC.
Position N 35°09' E 140°40'.
Warning: this ship's position is 28 days out of date.

Type: Ship. MMSI: 219324000.

Date/timePositionNaut miles runAvg speedWind from/ knotsBaromVisibWave heightAir tempDewpointWater temp
2018-Mar-27 15:08N 35°09' E 140°40'1021.1
2018-Mar-27 14:40N 35°04' E 140°30'520.4
2018-Mar-27 14:24N 35°01' E 140°24'819.6
2018-Mar-27 14:00N 34°57' E 140°16'919.0
2018-Mar-27 13:30N 34°53' E 140°06'1019.8
2018-Mar-27 13:00N 34°49' E 139°54'919.2
2018-Mar-27 12:30N 34°49' E 139°43'919.0
2018-Mar-27 12:00N 34°58' E 139°39'917.6
2018-Mar-27 11:30N 35°06' E 139°44'612.9
2018-Mar-27 11:00N 35°12' E 139°46'510.9
2018-Mar-27 10:30N 35°17' E 139°45'612.6
2018-Mar-27 10:00N 35°23' E 139°41'1 2.1
2018-Mar-27 09:30N 35°24' E 139°41'0 0.3
2018-Mar-27 08:58N 35°24' E 139°41'0 0.0
2018-Mar-27 08:28N 35°24' E 139°41'0 0.0
2018-Mar-27 08:00N 35°24' E 139°41'0 0.0
2018-Mar-27 07:31N 35°24' E 139°41'0 0.0
2018-Mar-27 07:01N 35°24' E 139°41'0 0.0
2018-Mar-27 06:31N 35°24' E 139°41'0 0.0
2018-Mar-27 06:01N 35°24' E 139°41'0 0.0
2018-Mar-27 05:31N 35°24' E 139°41'0 0.0
2018-Mar-27 05:01N 35°24' E 139°41'0 0.0
2018-Mar-27 04:31N 35°24' E 139°41'0 0.0
2018-Mar-27 04:00N 35°24' E 139°41'0 0.0
2018-Mar-27 03:31N 35°24' E 139°41'0 0.0
2018-Mar-27 03:01N 35°24' E 139°41'0 0.0
2018-Mar-27 02:31N 35°24' E 139°41'0 0.0
2018-Mar-27 02:01N 35°24' E 139°41'0 0.0
2018-Mar-27 01:31N 35°24' E 139°41'0 0.0
2018-Mar-27 01:01N 35°24' E 139°41'0 0.0
2018-Mar-27 00:30N 35°24' E 139°41'0 0.0
2018-Mar-27 00:00N 35°24' E 139°41'0 0.0
2018-Mar-26 23:30N 35°24' E 139°41'0 0.0
2018-Mar-26 23:00N 35°24' E 139°41'0 0.0
2018-Mar-26 22:31N 35°24' E 139°41'1 2.4
2018-Mar-26 22:01N 35°23' E 139°41'4 8.1
2018-Mar-26 21:31N 35°19' E 139°43'611.8
2018-Mar-26 21:00N 35°14' E 139°47'611.2
2018-Mar-26 20:30N 35°08' E 139°47'917.7
2018-Mar-26 20:00N 35°00' E 139°42'815.2
2018-Mar-26 19:27N 34°52' E 139°40'715.2
2018-Mar-26 19:00N 34°47' E 139°35'816.3
2018-Mar-26 18:30N 34°40' E 139°30'1017.4
2018-Mar-26 17:57N 34°38' E 139°19'918.9
2018-Mar-26 17:29N 34°34' E 139°09'919.6
2018-Mar-26 17:00N 34°28' E 139°00'1018.3
2018-Mar-26 16:27N 34°23' E 138°49'918.7
2018-Mar-26 15:58N 34°19' E 138°40'919.5
2018-Mar-26 15:30N 34°16' E 138°30'1019.1
2018-Mar-26 15:00N 34°11' E 138°19'1018.8
2018-Mar-26 14:28N 34°07' E 138°08'918.9
2018-Mar-26 13:58N 34°03' E 137°58'919.1
2018-Mar-26 13:28N 33°59' E 137°48'  
2018-Mar-20 02:28N 23°44' E 118°23'919.2
2018-Mar-20 01:59N 23°38' E 118°16'919.5
2018-Mar-20 01:30N 23°32' E 118°08'1019.5
2018-Mar-20 01:00N 23°27' E 117°59'1019.3
2018-Mar-20 00:30N 23°23' E 117°49'1019.4
2018-Mar-20 00:00N 23°19' E 117°40'1019.2
2018-Mar-19 23:30N 23°14' E 117°31'918.8
2018-Mar-19 23:00N 23°08' E 117°23'1118.9
2018-Mar-19 22:27N 23°03' E 117°13'  

Dump ship's entire track history